Time;durP1;ratioP1;P1;durP2;ratioP2;P2;SDS_P1;SDS_P2;PMS_P1;PMS_P2;Temp;Humidity;BMP_temperature;BMP_pressure;BME280_temperature;BME280_humidity;BME280_pressure;Samples;Min_cycle;Max_cycle;Signal;HPM_P1;HPM_P2
2022/08/18 00:02:14;;;;;;;0.00;0.00;;;;;;;18.81;100.00;97767.53;4926143;29;20074;-84
2022/08/18 00:04:42;;;;;;;0.00;0.00;;;;;;;18.83;100.00;97750.38;4924604;29;20054;-80
2022/08/18 00:07:14;;;;;;;0.00;0.00;;;;;;;18.85;100.00;97760.91;4927306;29;20144;-82
2022/08/18 00:09:43;;;;;;;0.00;0.00;;;;;;;18.91;100.00;97752.28;4926076;29;20123;-84
2022/08/18 00:12:20;;;;;;;0.00;0.00;;;;;;;18.96;100.00;97758.81;4925851;29;20051;-80
2022/08/18 00:14:48;;;;;;;0.00;0.00;;;;;;;18.98;100.00;97778.16;4922332;29;20044;-84
2022/08/18 00:17:17;;;;;;;0.00;0.00;;;;;;;19.01;100.00;97777.03;4926397;29;20039;-79
2022/08/18 00:19:45;;;;;;;0.00;0.00;;;;;;;18.98;100.00;97764.81;4925811;29;20041;-78
2022/08/18 00:22:16;;;;;;;0.00;0.00;;;;;;;18.90;100.00;97767.44;4927137;29;20052;-85
2022/08/18 00:24:47;;;;;;;0.00;0.00;;;;;;;18.85;100.00;97767.09;4924523;29;20066;-81
2022/08/18 00:27:18;;;;;;;0.00;0.00;;;;;;;18.84;100.00;97765.41;4925376;29;20103;-79
2022/08/18 00:29:45;;;;;;;0.00;0.00;;;;;;;18.83;100.00;97755.72;4925707;29;20087;-79
2022/08/18 00:32:14;;;;;;;0.00;0.00;;;;;;;18.70;100.00;97763.31;4924845;29;20040;-88
2022/08/18 00:34:42;;;;;;;0.00;0.00;;;;;;;18.71;100.00;97759.66;4924874;29;20619;-83
2022/08/18 00:37:09;;;;;;;0.00;0.00;;;;;;;18.75;100.00;97761.00;4926583;29;20044;-79
2022/08/18 00:39:37;;;;;;;0.00;0.00;;;;;;;18.78;100.00;97755.38;4923932;29;20075;-87
2022/08/18 00:42:15;;;;;;;0.00;0.00;;;;;;;18.74;100.00;97764.66;4929277;29;20039;-79
2022/08/18 00:44:43;;;;;;;0.00;0.00;;;;;;;18.60;100.00;97757.19;4923752;29;20044;-84
2022/08/18 00:47:10;;;;;;;0.00;0.00;;;;;;;18.49;100.00;97759.25;4926202;29;20572;-83
2022/08/18 00:49:41;;;;;;;0.00;0.00;;;;;;;18.42;100.00;97756.38;4918015;29;20067;-86
2022/08/18 00:52:09;;;;;;;0.00;0.00;;;;;;;18.46;100.00;97760.41;4926344;29;20536;-81
2022/08/18 00:54:39;;;;;;;0.00;0.00;;;;;;;18.52;100.00;97754.47;4926668;29;20043;-81
2022/08/18 00:57:08;;;;;;;0.00;0.00;;;;;;;18.52;100.00;97749.13;4923705;29;20044;-79
2022/08/18 00:59:43;;;;;;;0.00;0.00;;;;;;;18.49;100.00;97744.13;4925757;29;20036;-79
2022/08/18 01:02:16;;;;;;;0.00;0.00;;;;;;;18.52;100.00;97749.13;4924823;29;20039;-79
2022/08/18 01:04:51;;;;;;;0.00;0.00;;;;;;;18.51;100.00;97751.97;4922774;29;20047;-79
2022/08/18 01:07:22;;;;;;;0.00;0.00;;;;;;;18.36;100.00;97751.69;4926504;29;20044;-79
2022/08/18 01:09:50;;;;;;;0.00;0.00;;;;;;;18.32;100.00;97749.47;4934413;29;20173;-79
2022/08/18 01:12:18;;;;;;;0.00;0.00;;;;;;;18.26;100.00;97750.91;4933880;29;20054;-80
2022/08/18 01:14:48;;;;;;;0.00;0.00;;;;;;;18.21;100.00;97761.19;4934246;29;20035;-79
2022/08/18 01:22:58;;;;;;;0.00;0.00;;;;;;;18.19;100.00;97757.84;4932755;29;20035;-84
2022/08/18 01:28:11;;;;;;;0.00;0.00;;;;;;;18.13;100.00;97746.97;4918440;29;20043;-79
2022/08/18 01:30:48;;;;;;;0.00;0.00;;;;;;;18.18;100.00;97752.66;4916434;29;20123;-81
2022/08/18 01:33:16;;;;;;;0.00;0.00;;;;;;;18.22;100.00;97749.56;4918812;29;20046;-79
2022/08/18 01:35:48;;;;;;;0.00;0.00;;;;;;;18.15;100.00;97758.28;4917233;29;20131;-79
2022/08/18 01:38:19;;;;;;;0.00;0.00;;;;;;;18.12;100.00;97755.91;4928447;29;20048;-79
2022/08/18 01:40:47;;;;;;;0.00;0.00;;;;;;;18.13;100.00;97760.28;4935062;29;20050;-79
2022/08/18 01:43:15;;;;;;;0.00;0.00;;;;;;;18.10;100.00;97764.09;4934252;29;20047;-81
2022/08/18 01:45:43;;;;;;;0.00;0.00;;;;;;;18.09;100.00;97769.56;4933889;29;20050;-79
2022/08/18 01:48:10;;;;;;;0.00;0.00;;;;;;;18.07;100.00;97764.38;4934399;29;20047;-83
2022/08/18 01:50:40;;;;;;;0.00;0.00;;;;;;;18.05;100.00;97761.03;4932951;29;20385;-78
2022/08/18 01:53:10;;;;;;;0.00;0.00;;;;;;;17.99;100.00;97758.13;4915310;29;20048;-87
2022/08/18 01:55:44;;;;;;;0.00;0.00;;;;;;;17.97;100.00;97758.28;4919471;29;20126;-80
2022/08/18 01:58:12;;;;;;;0.00;0.00;;;;;;;17.87;100.00;97762.81;4916639;29;20059;-80
2022/08/18 02:00:41;;;;;;;0.00;0.00;;;;;;;17.83;100.00;97761.44;4918422;29;20051;-86
2022/08/18 02:03:12;;;;;;;0.00;0.00;;;;;;;17.86;100.00;97762.97;4925851;29;20048;-78
2022/08/18 02:05:46;;;;;;;0.00;0.00;;;;;;;17.87;100.00;97757.50;4932458;29;20059;-88
2022/08/18 02:08:14;;;;;;;0.00;0.00;;;;;;;17.88;100.00;97761.00;4924755;29;20473;-79
2022/08/18 02:10:43;;;;;;;0.00;0.00;;;;;;;17.87;100.00;97762.00;4933176;29;20039;-80
2022/08/18 02:13:10;;;;;;;0.00;0.00;;;;;;;17.86;100.00;97755.00;4933266;29;20044;-85
2022/08/18 02:15:37;;;;;;;0.00;0.00;;;;;;;17.87;100.00;97754.84;4933237;29;20076;-79
2022/08/18 02:18:05;;;;;;;0.00;0.00;;;;;;;17.92;100.00;97747.25;4922479;29;20048;-79
2022/08/18 02:20:33;;;;;;;0.00;0.00;;;;;;;17.91;100.00;97744.75;4929817;29;20353;-85
2022/08/18 02:23:02;;;;;;;0.00;0.00;;;;;;;17.85;100.00;97753.31;4929628;29;20059;-79
2022/08/18 02:25:29;;;;;;;0.00;0.00;;;;;;;17.81;100.00;97738.66;4933437;29;20057;-79
2022/08/18 02:27:58;;;;;;;0.00;0.00;;;;;;;17.78;100.00;97741.56;4927670;29;20142;-80
2022/08/18 02:30:25;;;;;;;0.00;0.00;;;;;;;17.62;100.00;97739.56;4916871;29;20072;-79
2022/08/18 02:32:53;;;;;;;0.00;0.00;;;;;;;17.54;100.00;97731.47;4916419;29;20036;-81
2022/08/18 02:35:20;;;;;;;0.00;0.00;;;;;;;17.65;100.00;97736.59;4917873;29;20044;-79
2022/08/18 02:37:48;;;;;;;0.00;0.00;;;;;;;17.69;100.00;97740.63;4921565;29;20051;-85
2022/08/18 02:40:16;;;;;;;0.00;0.00;;;;;;;17.63;100.00;97751.91;4918985;29;20047;-84
2022/08/18 02:42:44;;;;;;;0.00;0.00;;;;;;;17.63;100.00;97738.59;4937064;29;20050;-82
2022/08/18 02:45:14;;;;;;;0.00;0.00;;;;;;;17.55;100.00;97733.19;4936900;29;20992;-81
2022/08/18 02:47:43;;;;;;;0.00;0.00;;;;;;;17.50;100.00;97738.94;4936745;29;20046;-85
2022/08/18 02:50:11;;;;;;;0.00;0.00;;;;;;;17.59;100.00;97737.22;4936960;29;20050;-79
2022/08/18 02:52:39;;;;;;;0.00;0.00;;;;;;;17.61;100.00;97738.75;4936951;29;20052;-84
2022/08/18 02:55:07;;;;;;;0.00;0.00;;;;;;;17.61;100.00;97737.88;4937550;29;20050;-86
2022/08/18 02:57:34;;;;;;;0.00;0.00;;;;;;;17.64;100.00;97729.63;4936841;29;20095;-87
2022/08/18 03:00:02;;;;;;;0.00;0.00;;;;;;;17.61;100.00;97727.25;4937556;29;20051;-80
2022/08/18 03:02:31;;;;;;;0.00;0.00;;;;;;;17.54;100.00;97734.16;4936983;29;20066;-82
2022/08/18 03:04:59;;;;;;;0.00;0.00;;;;;;;17.47;100.00;97733.91;4936090;29;20056;-85
2022/08/18 03:07:27;;;;;;;0.00;0.00;;;;;;;17.40;100.00;97742.66;4924512;29;20374;-85
2022/08/18 03:09:54;;;;;;;0.00;0.00;;;;;;;17.36;100.00;97746.56;4929981;29;20066;-86
2022/08/18 03:12:21;;;;;;;0.00;0.00;;;;;;;17.31;100.00;97744.34;4929330;29;20044;-79
2022/08/18 03:14:49;;;;;;;0.00;0.00;;;;;;;17.28;100.00;97743.81;4936265;29;20043;-79
2022/08/18 03:17:16;;;;;;;0.00;0.00;;;;;;;17.29;100.00;97745.50;4929413;29;20040;-79
2022/08/18 03:19:45;;;;;;;0.00;0.00;;;;;;;17.26;100.00;97751.09;4935593;29;20043;-83
2022/08/18 03:22:13;;;;;;;0.00;0.00;;;;;;;17.16;100.00;97760.94;4935388;29;20044;-80
2022/08/18 03:24:40;;;;;;;0.00;0.00;;;;;;;17.15;100.00;97761.91;4935833;29;20500;-79
2022/08/18 03:27:08;;;;;;;0.00;0.00;;;;;;;17.24;100.00;97764.53;4936575;29;20059;-83
2022/08/18 03:29:36;;;;;;;0.00;0.00;;;;;;;17.23;100.00;97767.34;4936728;29;20047;-85
2022/08/18 03:32:07;;;;;;;0.00;0.00;;;;;;;17.28;100.00;97773.06;4936144;29;20054;-78
2022/08/18 03:34:35;;;;;;;0.00;0.00;;;;;;;17.30;100.00;97771.09;4935898;29;20095;-85
2022/08/18 03:37:04;;;;;;;0.00;0.00;;;;;;;17.24;100.00;97775.19;4918616;29;20099;-78
2022/08/18 03:39:31;;;;;;;0.00;0.00;;;;;;;17.25;100.00;97774.19;4924490;29;20059;-81
2022/08/18 03:41:59;;;;;;;0.00;0.00;;;;;;;17.30;100.00;97779.88;4919449;29;20095;-80
2022/08/18 03:44:27;;;;;;;0.00;0.00;;;;;;;17.36;100.00;97771.34;4917869;29;20044;-87
2022/08/18 03:46:56;;;;;;;0.00;0.00;;;;;;;17.36;100.00;97775.81;4919558;29;20052;-85
2022/08/18 03:49:23;;;;;;;0.00;0.00;;;;;;;17.36;100.00;97781.97;4918726;29;20095;-88
2022/08/18 03:51:51;;;;;;;0.00;0.00;;;;;;;17.44;100.00;97774.09;4919887;29;20132;-83
2022/08/18 03:54:20;;;;;;;0.00;0.00;;;;;;;17.50;100.00;97783.31;4916899;29;20036;-84
2022/08/18 03:56:48;;;;;;;0.00;0.00;;;;;;;17.55;100.00;97789.03;4914098;29;20456;-85
2022/08/18 03:59:18;;;;;;;0.00;0.00;;;;;;;17.56;100.00;97793.38;4921738;29;20055;-79
2022/08/18 04:01:47;;;;;;;0.00;0.00;;;;;;;17.66;100.00;97788.84;4919314;29;20523;-85
2022/08/18 04:04:17;;;;;;;0.00;0.00;;;;;;;17.69;100.00;97796.50;4927901;29;20075;-85
2022/08/18 04:06:48;;;;;;;0.00;0.00;;;;;;;17.70;100.00;97798.22;4917021;29;20088;-81
2022/08/18 04:09:18;;;;;;;0.00;0.00;;;;;;;17.67;100.00;97790.53;4915889;29;20497;-80
2022/08/18 04:11:47;;;;;;;0.00;0.00;;;;;;;17.74;100.00;97786.28;4913712;29;20040;-79
2022/08/18 04:14:17;;;;;;;0.00;0.00;;;;;;;17.83;100.00;97798.72;4924692;29;20074;-80
2022/08/18 04:16:47;;;;;;;0.00;0.00;;;;;;;17.86;100.00;97801.09;4933290;29;20131;-81
2022/08/18 04:19:16;;;;;;;0.00;0.00;;;;;;;17.88;100.00;97796.47;4921871;29;20482;-79
2022/08/18 04:21:45;;;;;;;0.00;0.00;;;;;;;17.95;100.00;97797.50;4913412;29;20075;-82
2022/08/18 04:24:14;;;;;;;0.00;0.00;;;;;;;18.02;100.00;97795.09;4919383;29;20095;-81
2022/08/18 04:26:45;;;;;;;0.00;0.00;;;;;;;18.20;100.00;97801.28;4927183;29;20044;-80
2022/08/18 04:29:16;;;;;;;0.00;0.00;;;;;;;18.35;100.00;97800.59;4933658;29;20556;-83
2022/08/18 04:31:44;;;;;;;0.00;0.00;;;;;;;18.51;100.00;97803.44;4929474;29;20036;-81
2022/08/18 04:34:12;;;;;;;0.00;0.00;;;;;;;18.67;100.00;97792.06;4913897;29;20573;-81
2022/08/18 04:36:41;;;;;;;0.00;0.00;;;;;;;18.79;100.00;97799.69;4917636;29;20569;-80
2022/08/18 04:39:10;;;;;;;0.00;0.00;;;;;;;18.90;100.00;97798.63;4917105;29;20107;-81
2022/08/18 04:41:39;;;;;;;0.00;0.00;;;;;;;19.01;100.00;97799.16;4914922;29;20040;-80
2022/08/18 04:44:09;;;;;;;0.00;0.00;;;;;;;19.13;100.00;97802.44;4917623;29;20046;-86
2022/08/18 04:46:40;;;;;;;0.00;0.00;;;;;;;19.21;100.00;97803.31;4922084;29;20054;-79
2022/08/18 04:49:09;;;;;;;0.00;0.00;;;;;;;19.27;100.00;97799.19;4925860;29;20055;-85
2022/08/18 04:51:40;;;;;;;0.00;0.00;;;;;;;19.31;100.00;97803.22;4917867;29;20335;-80
2022/08/18 04:54:07;;;;;;;0.00;0.00;;;;;;;19.31;100.00;97806.69;4916405;29;20040;-79
2022/08/18 04:56:38;;;;;;;0.00;0.00;;;;;;;19.41;100.00;97804.78;4919228;29;20405;-81
2022/08/18 04:59:08;;;;;;;0.00;0.00;;;;;;;19.51;100.00;97805.53;4915053;29;20070;-80
2022/08/18 05:01:39;;;;;;;0.00;0.00;;;;;;;19.62;100.00;97805.25;4922967;29;20039;-86
2022/08/18 05:04:07;;;;;;;0.00;0.00;;;;;;;19.74;100.00;97801.28;4933671;29;20134;-81
2022/08/18 05:06:36;;;;;;;0.00;0.00;;;;;;;19.82;100.00;97803.97;4934309;29;20039;-80
2022/08/18 05:09:06;;;;;;;0.00;0.00;;;;;;;19.91;100.00;97807.50;4923818;29;20135;-79
2022/08/18 05:11:33;;;;;;;0.00;0.00;;;;;;;19.99;100.00;97802.19;4918336;29;20099;-81
2022/08/18 05:14:02;;;;;;;0.00;0.00;;;;;;;20.09;100.00;97806.41;4925804;29;20489;-85
2022/08/18 05:16:35;;;;;;;0.00;0.00;;;;;;;20.18;100.00;97801.94;4915441;29;20105;-84
2022/08/18 05:19:05;;;;;;;0.00;0.00;;;;;;;20.26;100.00;97800.13;4915825;29;20406;-81
2022/08/18 05:21:32;;;;;;;0.00;0.00;;;;;;;20.35;100.00;97806.31;4915282;29;20052;-80
2022/08/18 05:24:01;;;;;;;0.00;0.00;;;;;;;20.47;100.00;97810.34;4915061;29;20104;-84
2022/08/18 05:26:28;;;;;;;0.00;0.00;;;;;;;20.58;100.00;97816.22;4931193;29;20080;-81
2022/08/18 05:28:56;;;;;;;0.00;0.00;;;;;;;20.73;100.00;97819.03;4920224;29;20142;-87
2022/08/18 05:31:26;;;;;;;0.00;0.00;;;;;;;20.81;100.00;97813.69;4927932;29;20046;-80
2022/08/18 05:33:55;;;;;;;0.00;0.00;;;;;;;20.89;100.00;97810.19;4933629;29;20098;-79
2022/08/18 05:36:49;;;;;;;0.00;0.00;;;;;;;21.01;100.00;97806.19;4921541;29;20434;-82
2022/08/18 05:39:23;;;;;;;0.00;0.00;;;;;;;21.15;100.00;97814.41;4921965;29;20044;-84
2022/08/18 05:41:53;;;;;;;0.00;0.00;;;;;;;21.28;100.00;97814.69;4915577;29;20395;-82
2022/08/18 05:44:26;;;;;;;0.00;0.00;;;;;;;21.42;100.00;97805.97;4931533;29;20130;-80
2022/08/18 05:46:55;;;;;;;0.00;0.00;;;;;;;21.47;100.00;97805.47;4934124;29;20054;-80
2022/08/18 05:49:26;;;;;;;0.00;0.00;;;;;;;21.62;100.00;97806.41;4933627;29;20048;-79
2022/08/18 05:51:59;;;;;;;0.00;0.00;;;;;;;21.83;100.00;97812.06;4934054;29;20043;-79
2022/08/18 05:57:18;;;;;;;0.00;0.00;;;;;;;22.10;100.00;97800.88;4934507;29;19926;-79
2022/08/18 05:59:46;;;;;;;;;;;;;;;22.30;100.00;97807.44;4933481;29;20095;-80
2022/08/18 06:02:19;;;;;;;0.00;0.00;;;;;;;22.38;100.00;97807.41;4934278;29;19922;-83
2022/08/18 06:04:51;;;;;;;0.00;0.00;;;;;;;22.49;100.00;97807.84;4933492;29;20059;-82
2022/08/18 06:07:27;;;;;;;0.00;0.00;;;;;;;22.65;100.00;97799.69;4922997;29;20050;-80
2022/08/18 06:09:55;;;;;;;0.00;0.00;;;;;;;22.79;100.00;97798.09;4928152;29;20047;-85
2022/08/18 06:12:27;;;;;;;0.00;0.00;;;;;;;22.94;100.00;97801.66;4930594;29;20032;-80
2022/08/18 06:15:00;;;;;;;;;;;;;;;23.11;100.00;97798.66;4936423;29;20044;-81
2022/08/18 06:17:35;;;;;;;;;;;;;;;23.14;100.00;97797.47;4909092;29;19930;-85
2022/08/18 06:20:09;;;;;;;0.00;0.00;;;;;;;23.14;100.00;97803.66;4918975;29;19932;-80
2022/08/18 06:22:47;;;;;;;0.00;0.00;;;;;;;23.24;100.00;97803.41;4922222;29;20458;-80
2022/08/18 06:25:23;;;;;;;0.00;0.00;;;;;;;23.34;100.00;97798.63;4934827;29;20048;-79
2022/08/18 06:27:59;;;;;;;0.00;0.00;;;;;;;23.50;100.00;97796.56;4916718;29;20501;-82
2022/08/18 06:30:37;;;;;;;0.00;0.00;;;;;;;23.68;100.00;97801.63;4917850;29;20051;-81
2022/08/18 06:33:17;;;;;;;0.00;0.00;;;;;;;23.78;98.51;97801.31;4921709;29;20497;-81
2022/08/18 06:35:49;;;;;;;0.00;0.00;;;;;;;23.91;98.32;97807.69;4918966;29;20448;-81
2022/08/18 06:38:40;;;;;;;0.00;0.00;;;;;;;24.08;96.98;97811.00;4920370;29;20048;-86
2022/08/18 06:41:18;;;;;;;0.00;0.00;;;;;;;24.18;95.90;97808.88;4919722;29;20044;-86
2022/08/18 06:43:58;;;;;;;0.00;0.00;;;;;;;24.25;94.95;97810.59;4920832;29;20046;-80
2022/08/18 06:46:40;;;;;;;0.00;0.00;;;;;;;24.39;94.03;97808.91;4918256;29;20055;-88
2022/08/18 06:49:10;;;;;;;0.00;0.00;;;;;;;24.47;93.32;97809.63;4921151;29;20058;-80
2022/08/18 06:51:38;;;;;;;0.00;0.00;;;;;;;24.54;91.64;97815.94;4920014;29;20386;-85
2022/08/18 06:54:25;;;;;;;0.00;0.00;;;;;;;24.65;90.91;97818.09;4921360;29;20044;-82
2022/08/18 06:56:56;;;;;;;0.00;0.00;;;;;;;24.76;90.25;97816.75;4913392;29;20076;-81
2022/08/18 06:59:27;;;;;;;0.00;0.00;;;;;;;24.85;90.43;97821.00;4921921;29;20131;-86
2022/08/18 07:02:00;;;;;;;0.00;0.00;;;;;;;24.92;90.08;97820.03;4914914;29;20525;-82
2022/08/18 07:04:40;;;;;;;0.00;0.00;;;;;;;24.98;89.17;97823.81;4912652;29;20041;-82
2022/08/18 07:07:19;;;;;;;0.00;0.00;;;;;;;25.01;87.31;97826.97;4916245;29;20562;-83
2022/08/18 07:09:48;;;;;;;0.00;0.00;;;;;;;25.03;87.13;97829.47;4916549;29;20549;-81
2022/08/18 07:12:22;;;;;;;0.00;0.00;;;;;;;25.04;87.54;97826.59;4916048;29;20048;-82
2022/08/18 07:14:52;;;;;;;0.00;0.00;;;;;;;25.22;87.55;97823.44;4916521;29;20095;-79
2022/08/18 07:17:23;;;;;;;0.00;0.00;;;;;;;25.32;85.31;97826.63;4916439;29;20044;-84
2022/08/18 07:20:00;;;;;;;0.00;0.00;;;;;;;25.47;84.44;97822.78;4917886;29;20472;-79
2022/08/18 07:22:28;;;;;;;0.00;0.00;;;;;;;25.56;83.35;97823.50;4916750;29;20081;-83
2022/08/18 07:25:03;;;;;;;0.00;0.00;;;;;;;25.55;83.34;97822.66;4918834;29;20532;-81
2022/08/18 07:27:45;;;;;;;0.00;0.00;;;;;;;25.59;82.92;97826.66;4914651;29;20135;-78
2022/08/18 07:30:24;;;;;;;0.00;0.00;;;;;;;25.68;81.65;97821.91;4914390;29;20048;-81
2022/08/18 07:32:57;;;;;;;0.00;0.00;;;;;;;25.82;81.51;97815.56;4917417;29;20498;-80
2022/08/18 07:35:32;;;;;;;0.00;0.00;;;;;;;25.95;80.84;97811.06;4910282;29;20419;-81
2022/08/18 07:38:03;;;;;;;0.00;0.00;;;;;;;25.97;78.83;97800.94;4916781;29;20135;-80
2022/08/18 07:40:38;;;;;;;0.00;0.00;;;;;;;25.98;78.57;97807.97;4918529;29;20070;-81
2022/08/18 07:43:11;;;;;;;0.00;0.00;;;;;;;26.11;78.63;97812.59;4916623;29;20051;-81
2022/08/18 07:45:43;;;;;;;0.00;0.00;;;;;;;26.19;77.46;97799.81;4915821;29;20071;-79
2022/08/18 07:48:12;;;;;;;0.00;0.00;;;;;;;26.18;76.59;97806.25;4912313;29;20131;-80
2022/08/18 07:50:45;;;;;;;0.00;0.00;;;;;;;26.23;76.37;97803.75;4919141;29;20040;-79
2022/08/18 07:53:34;;;;;;;0.00;0.00;;;;;;;26.34;77.05;97803.19;4925229;29;20143;-79
2022/08/18 07:56:14;;;;;;;0.00;0.00;;;;;;;26.44;76.50;97803.63;4935935;29;20401;-80
2022/08/18 07:58:48;;;;;;;0.00;0.00;;;;;;;26.40;75.32;97801.53;4936570;29;20044;-80
2022/08/18 08:01:26;;;;;;;0.00;0.00;;;;;;;26.45;75.96;97799.88;4924858;29;20040;-83
2022/08/18 08:04:01;;;;;;;0.00;0.00;;;;;;;26.68;76.88;97804.94;4911159;29;20072;-78
2022/08/18 08:06:33;;;;;;;0.00;0.00;;;;;;;26.84;74.11;97809.97;4911202;29;20045;-81
2022/08/18 08:09:11;;;;;;;0.00;0.00;;;;;;;26.74;74.09;97793.31;4915040;29;20048;-79
2022/08/18 08:11:47;;;;;;;0.00;0.00;;;;;;;26.63;73.79;97796.59;4912841;29;20048;-80
2022/08/18 08:14:38;;;;;;;0.00;0.00;;;;;;;26.68;74.56;97801.38;4913278;29;20450;-79
2022/08/18 08:17:12;;;;;;;0.00;0.00;;;;;;;26.75;73.73;97803.06;4914237;29;20036;-80
2022/08/18 08:19:59;;;;;;;0.00;0.00;;;;;;;26.79;74.47;97812.47;4912444;29;20071;-80
2022/08/18 08:22:33;;;;;;;0.00;0.00;;;;;;;26.80;74.19;97807.88;4913144;29;20099;-84
2022/08/18 08:25:08;;;;;;;0.00;0.00;;;;;;;27.01;75.12;97803.09;4912126;29;20076;-81
2022/08/18 08:27:52;;;;;;;0.00;0.00;;;;;;;27.19;74.70;97791.69;4912516;29;20044;-78
2022/08/18 08:30:23;;;;;;;0.00;0.00;;;;;;;27.14;73.64;97799.56;4916964;29;20126;-78
2022/08/18 08:33:06;;;;;;;0.00;0.00;;;;;;;26.95;73.13;97795.00;4915556;29;20055;-80
2022/08/18 08:35:42;;;;;;;0.00;0.00;;;;;;;26.95;72.87;97790.44;4916419;29;20051;-79
2022/08/18 08:38:15;;;;;;;0.00;0.00;;;;;;;27.02;71.84;97790.44;4914772;29;20048;-78
2022/08/18 08:40:51;;;;;;;0.00;0.00;;;;;;;27.08;71.39;97795.84;4922706;29;20038;-78
2022/08/18 08:43:26;;;;;;;0.00;0.00;;;;;;;27.19;70.17;97807.91;4934685;29;20043;-79
2022/08/18 08:46:03;;;;;;;0.00;0.00;;;;;;;27.30;69.56;97807.31;4931236;29;20510;-80
2022/08/18 08:48:35;;;;;;;0.00;0.00;;;;;;;27.43;69.20;97804.56;4929276;29;20640;-78
2022/08/18 08:51:07;;;;;;;;;;;;;;;27.57;69.07;97808.94;4935182;29;20047;-82
2022/08/18 08:53:43;;;;;;;0.00;0.00;;;;;;;27.54;68.79;97812.03;4920865;29;19930;-79
2022/08/18 08:56:14;;;;;;;0.00;0.00;;;;;;;27.51;67.59;97812.47;4914907;29;20386;-79
2022/08/18 08:58:46;;;;;;;0.00;0.00;;;;;;;27.56;67.63;97815.38;4929231;29;20047;-78
2022/08/18 09:01:24;;;;;;;0.00;0.00;;;;;;;27.62;67.34;97825.34;4913944;29;20410;-82
2022/08/18 09:03:59;;;;;;;0.00;0.00;;;;;;;27.68;67.03;97819.94;4915086;29;20104;-79
2022/08/18 09:06:36;;;;;;;0.00;0.00;;;;;;;27.72;68.06;97826.59;4912551;29;20040;-77
2022/08/18 09:09:28;;;;;;;0.00;0.00;;;;;;;27.89;67.87;97829.69;4913788;29;20557;-79
2022/08/18 09:12:21;;;;;;;0.00;0.00;;;;;;;27.96;67.44;97833.22;4913028;29;20056;-78
2022/08/18 09:15:17;;;;;;;0.00;0.00;;;;;;;27.78;65.44;97830.31;4914237;29;20062;-78
2022/08/18 09:18:09;;;;;;;0.00;0.00;;;;;;;27.96;66.75;97828.63;4914439;29;20040;-81
2022/08/18 09:20:53;;;;;;;0.00;0.00;;;;;;;28.19;65.91;97822.72;4914304;29;20498;-77
2022/08/18 09:23:25;;;;;;;0.00;0.00;;;;;;;28.30;67.27;97824.75;4916105;29;20577;-83
2022/08/18 09:25:54;;;;;;;0.00;0.00;;;;;;;28.37;67.77;97812.03;4915812;29;20071;-79
2022/08/18 09:28:40;;;;;;;0.00;0.00;;;;;;;28.40;65.56;97817.00;4916225;29;20063;-81
2022/08/18 09:31:19;;;;;;;0.00;0.00;;;;;;;28.10;64.15;97818.59;4917325;29;20075;-80
2022/08/18 09:34:12;;;;;;;0.00;0.00;;;;;;;28.11;64.03;97822.97;4914993;29;20051;-79
2022/08/18 09:36:54;;;;;;;0.00;0.00;;;;;;;28.22;64.26;97822.31;4914997;29;20072;-79
2022/08/18 09:42:16;;;;;;;0.00;0.00;;;;;;;28.34;64.07;97823.28;4917452;29;20401;-79
2022/08/18 09:45:04;;;;;;;0.00;0.00;;;;;;;28.49;64.22;97822.00;4922710;29;20323;-78
2022/08/18 09:47:59;;;;;;;0.00;0.00;;;;;;;28.29;63.69;97815.81;4926697;29;20119;-79
2022/08/18 09:50:55;;;;;;;0.00;0.00;;;;;;;28.09;63.85;97820.47;4932737;29;20039;-82
2022/08/18 09:53:52;;;;;;;0.00;0.00;;;;;;;28.23;63.73;97819.38;4932930;29;20051;-83
2022/08/18 09:56:53;;;;;;;0.00;0.00;;;;;;;28.27;63.79;97815.19;4919101;29;20470;-78
2022/08/18 10:00:10;;;;;;;0.00;0.00;;;;;;;28.38;63.46;97811.81;4928383;29;20091;-79
2022/08/18 10:03:23;;;;;;;0.00;0.00;;;;;;;28.70;63.38;97818.94;4876508;29;20049;-81
2022/08/18 10:06:05;;;;;;;0.00;0.00;;;;;;;28.75;62.02;97821.84;4891358;29;20048;-79
2022/08/18 10:08:53;;;;;;;0.00;0.00;;;;;;;28.90;61.68;97821.53;4895624;29;20052;-79
2022/08/18 10:11:38;;;;;;;0.00;0.00;;;;;;;29.07;62.18;97828.13;4889755;29;20041;-85
2022/08/18 10:14:34;;;;;;;0.00;0.00;;;;;;;29.14;60.89;97818.88;4878026;29;21597;-84
2022/08/18 10:17:08;;;;;;;0.00;0.00;;;;;;;29.27;60.92;97817.94;4876105;29;20131;-84
2022/08/18 10:19:49;;;;;;;0.00;0.00;;;;;;;29.24;60.47;97818.38;4873493;29;20090;-82
2022/08/18 10:22:37;;;;;;;0.00;0.00;;;;;;;29.35;60.35;97823.06;4874586;29;20056;-79
2022/08/18 10:25:10;;;;;;;0.00;0.00;;;;;;;29.16;59.84;97815.94;4874678;29;20060;-86
2022/08/18 10:27:49;;;;;;;0.00;0.00;;;;;;;29.27;60.24;97820.63;4877322;29;20069;-85
2022/08/18 10:31:07;;;;;;;0.00;0.00;;;;;;;29.23;60.20;97814.84;4874731;29;20049;-86
2022/08/18 10:34:05;;;;;;;0.00;0.00;;;;;;;28.86;58.86;97814.88;4830227;29;20089;-79
2022/08/18 10:36:44;;;;;;;0.00;0.00;;;;;;;28.61;60.17;97803.16;4851218;29;20082;-79
2022/08/18 10:39:15;;;;;;;0.00;0.00;;;;;;;28.72;60.29;97800.59;4851973;29;20152;-83
2022/08/18 10:41:56;;;;;;;0.00;0.00;;;;;;;28.78;60.38;97799.75;4851862;29;20050;-85
2022/08/18 10:44:26;;;;;;;0.00;0.00;;;;;;;28.80;60.83;97799.50;4847846;29;20057;-82
2022/08/18 10:46:54;;;;;;;0.00;0.00;;;;;;;28.89;60.53;97799.03;4845608;29;20081;-79
2022/08/18 10:49:26;;;;;;;0.00;0.00;;;;;;;28.92;60.32;97786.94;4842607;29;20053;-79
2022/08/18 10:52:20;;;;;;;0.00;0.00;;;;;;;29.07;61.25;97788.28;4850916;29;20045;-80
2022/08/18 10:55:33;;;;;;;0.00;0.00;;;;;;;29.05;59.52;97779.56;4855792;29;20082;-79
2022/08/18 10:58:40;;;;;;;0.00;0.00;;;;;;;29.10;59.95;97778.91;4852276;29;20096;-85
2022/08/18 11:01:17;;;;;;;0.00;0.00;;;;;;;29.02;59.04;97776.44;4849299;29;20058;-82
2022/08/18 11:04:03;;;;;;;0.00;0.00;;;;;;;28.81;60.50;97765.97;4853713;29;20081;-83
2022/08/18 11:06:38;;;;;;;0.00;0.00;;;;;;;28.78;60.59;97763.69;4855551;29;20098;-80
2022/08/18 11:09:09;;;;;;;0.00;0.00;;;;;;;28.80;59.74;97753.47;4858562;29;20229;-81
2022/08/18 11:11:42;;;;;;;0.00;0.00;;;;;;;28.76;59.94;97752.25;4913007;29;20071;-81
2022/08/18 11:14:49;;;;;;;0.00;0.00;;;;;;;28.64;59.65;97759.41;4911482;29;20402;-80
2022/08/18 11:17:23;;;;;;;0.00;0.00;;;;;;;28.80;60.53;97754.28;4907479;29;20048;-80
2022/08/18 11:19:52;;;;;;;0.00;0.00;;;;;;;28.86;59.90;97752.59;4907317;29;20172;-84
2022/08/18 11:22:24;;;;;;;0.00;0.00;;;;;;;29.02;60.43;97749.34;4906512;29;20039;-85
2022/08/18 11:24:53;;;;;;;0.00;0.00;;;;;;;29.14;59.51;97742.19;4913138;29;20055;-87
2022/08/18 11:27:23;;;;;;;0.00;0.00;;;;;;;29.14;59.39;97745.69;4904801;29;20043;-81
2022/08/18 11:29:51;;;;;;;0.00;0.00;;;;;;;29.01;58.67;97745.00;4908403;29;20505;-81
2022/08/18 11:32:24;;;;;;;0.00;0.00;;;;;;;29.02;58.37;97744.78;4902981;29;20041;-80
2022/08/18 11:35:00;;;;;;;0.00;0.00;;;;;;;29.04;58.60;97747.25;4910575;29;20442;-80
2022/08/18 11:37:37;;;;;;;0.00;0.00;;;;;;;29.03;58.11;97740.19;4905367;29;20051;-83
2022/08/18 11:40:20;;;;;;;0.00;0.00;;;;;;;29.11;58.72;97737.19;4912758;29;20566;-86
2022/08/18 11:42:55;;;;;;;0.00;0.00;;;;;;;29.34;58.07;97727.38;4910150;29;20048;-82
2022/08/18 11:45:27;;;;;;;0.00;0.00;;;;;;;29.39;58.10;97734.81;4901235;29;20494;-85
2022/08/18 11:48:11;;;;;;;0.00;0.00;;;;;;;29.16;57.56;97735.47;4908731;29;20123;-82
2022/08/18 11:50:47;;;;;;;0.00;0.00;;;;;;;29.05;58.81;97738.06;4914430;29;20494;-86
2022/08/18 11:53:23;;;;;;;0.00;0.00;;;;;;;29.09;58.34;97733.88;4911162;29;20048;-80
2022/08/18 11:56:14;;;;;;;0.00;0.00;;;;;;;29.15;58.28;97733.84;4908885;29;20044;-82
2022/08/18 11:58:44;;;;;;;0.00;0.00;;;;;;;29.27;58.55;97723.06;4911397;29;20046;-80
2022/08/18 12:01:29;;;;;;;0.00;0.00;;;;;;;29.35;58.15;97733.63;4916031;29;20052;-84
2022/08/18 12:03:58;;;;;;;0.00;0.00;;;;;;;29.18;57.27;97729.84;4910351;29;20397;-81
2022/08/18 12:06:28;;;;;;;0.00;0.00;;;;;;;29.19;56.90;97720.66;4915054;29;20048;-80
2022/08/18 12:09:01;;;;;;;0.00;0.00;;;;;;;29.23;56.17;97708.31;4910543;29;20052;-82
2022/08/18 12:11:32;;;;;;;0.00;0.00;;;;;;;29.18;56.30;97710.88;4911635;29;20054;-81
2022/08/18 12:14:05;;;;;;;0.00;0.00;;;;;;;29.18;55.57;97702.75;4913927;29;20055;-84
2022/08/18 12:16:39;;;;;;;0.00;0.00;;;;;;;29.19;56.08;97707.94;4909430;29;20151;-84